sensor_id;sensor_type;location;lat;lon;timestamp;temperature;humidity
75010;DHT22;63564;46.840;18.336;2024-03-23T00:55:51;9.11;78.85
75010;DHT22;63564;46.840;18.336;2024-03-23T01:02:28;9.07;79.12
75010;DHT22;63564;46.840;18.336;2024-03-23T01:05:31;9.07;79.06
75010;DHT22;63564;46.840;18.336;2024-03-23T01:08:44;9.14;78.80
75010;DHT22;63564;46.840;18.336;2024-03-23T01:11:48;9.14;78.96
75010;DHT22;63564;46.840;18.336;2024-03-23T01:14:48;9.10;78.78
75010;DHT22;63564;46.840;18.336;2024-03-23T01:17:49;9.11;78.70
75010;DHT22;63564;46.840;18.336;2024-03-23T01:20:49;9.04;78.78
75010;DHT22;63564;46.840;18.336;2024-03-23T01:23:52;9.09;78.48
75010;DHT22;63564;46.840;18.336;2024-03-23T01:26:57;8.92;78.98
75010;DHT22;63564;46.840;18.336;2024-03-23T01:30:04;8.80;79.53
75010;DHT22;63564;46.840;18.336;2024-03-23T01:33:07;8.82;79.39
75010;DHT22;63564;46.840;18.336;2024-03-23T01:36:19;8.82;79.54
75010;DHT22;63564;46.840;18.336;2024-03-23T01:39:31;8.86;79.47
75010;DHT22;63564;46.840;18.336;2024-03-23T01:42:34;8.77;79.95
75010;DHT22;63564;46.840;18.336;2024-03-23T01:45:46;8.73;80.10
75010;DHT22;63564;46.840;18.336;2024-03-23T01:48:56;8.69;80.23
75010;DHT22;63564;46.840;18.336;2024-03-23T01:52:12;8.63;80.46
75010;DHT22;63564;46.840;18.336;2024-03-23T01:55:20;8.55;80.71
75010;DHT22;63564;46.840;18.336;2024-03-23T01:58:30;8.55;80.92
75010;DHT22;63564;46.840;18.336;2024-03-23T02:01:47;8.48;81.14
75010;DHT22;63564;46.840;18.336;2024-03-23T02:05:16;8.55;81.08
75010;DHT22;63564;46.840;18.336;2024-03-23T02:08:41;8.55;81.18
75010;DHT22;63564;46.840;18.336;2024-03-23T02:12:11;8.45;81.43
75010;DHT22;63564;46.840;18.336;2024-03-23T02:15:13;8.45;81.54
75010;DHT22;63564;46.840;18.336;2024-03-23T02:18:14;8.44;81.64
75010;DHT22;63564;46.840;18.336;2024-03-23T02:21:18;8.41;81.78
75010;DHT22;63564;46.840;18.336;2024-03-23T02:24:26;8.45;81.82
75010;DHT22;63564;46.840;18.336;2024-03-23T02:27:30;8.42;81.89
75010;DHT22;63564;46.840;18.336;2024-03-23T02:30:54;8.38;82.09
75010;DHT22;63564;46.840;18.336;2024-03-23T02:34:01;8.41;82.06
75010;DHT22;63564;46.840;18.336;2024-03-23T02:37:16;8.40;82.18
75010;DHT22;63564;46.840;18.336;2024-03-23T02:40:25;8.30;82.62
75010;DHT22;63564;46.840;18.336;2024-03-23T02:43:31;8.27;82.85
75010;DHT22;63564;46.840;18.336;2024-03-23T02:46:39;8.23;83.00
75010;DHT22;63564;46.840;18.336;2024-03-23T02:49:43;8.28;82.87
75010;DHT22;63564;46.840;18.336;2024-03-23T02:53:08;8.24;83.03
75010;DHT22;63564;46.840;18.336;2024-03-23T02:56:18;8.20;83.21
75010;DHT22;63564;46.840;18.336;2024-03-23T02:59:27;8.20;83.40
75010;DHT22;63564;46.840;18.336;2024-03-23T03:02:34;8.23;83.27
75010;DHT22;63564;46.840;18.336;2024-03-23T03:05:34;8.21;83.40
75010;DHT22;63564;46.840;18.336;2024-03-23T03:08:37;8.23;83.46
75010;DHT22;63564;46.840;18.336;2024-03-23T03:11:40;8.21;83.53
75010;DHT22;63564;46.840;18.336;2024-03-23T03:14:53;8.25;83.57
75010;DHT22;63564;46.840;18.336;2024-03-23T03:17:56;8.13;83.97
75010;DHT22;63564;46.840;18.336;2024-03-23T03:20:57;8.14;83.97
75010;DHT22;63564;46.840;18.336;2024-03-23T03:23:58;8.04;84.30
75010;DHT22;63564;46.840;18.336;2024-03-23T03:26:58;7.98;84.57
75010;DHT22;63564;46.840;18.336;2024-03-23T03:30:12;8.01;84.61
75010;DHT22;63564;46.840;18.336;2024-03-23T03:33:12;8.00;84.85
75010;DHT22;63564;46.840;18.336;2024-03-23T03:36:19;7.97;84.80
75010;DHT22;63564;46.840;18.336;2024-03-23T03:39:22;7.97;85.24
75010;DHT22;63564;46.840;18.336;2024-03-23T03:42:34;8.11;84.95
75010;DHT22;63564;46.840;18.336;2024-03-23T03:46:01;8.20;84.89
75010;DHT22;63564;46.840;18.336;2024-03-23T03:52:39;8.30;84.96
75010;DHT22;63564;46.840;18.336;2024-03-23T03:59:18;8.28;85.14
75010;DHT22;63564;46.840;18.336;2024-03-23T04:02:18;8.41;85.01
75010;DHT22;63564;46.840;18.336;2024-03-23T04:05:22;8.44;84.98
75010;DHT22;63564;46.840;18.336;2024-03-23T04:08:28;8.46;84.85
75010;DHT22;63564;46.840;18.336;2024-03-23T04:11:28;8.51;84.81
75010;DHT22;63564;46.840;18.336;2024-03-23T04:14:29;8.49;84.90
75010;DHT22;63564;46.840;18.336;2024-03-23T04:17:29;8.48;84.96
75010;DHT22;63564;46.840;18.336;2024-03-23T04:20:35;8.44;85.08
75010;DHT22;63564;46.840;18.336;2024-03-23T04:23:41;8.42;85.16
75010;DHT22;63564;46.840;18.336;2024-03-23T04:26:44;8.37;85.38
75010;DHT22;63564;46.840;18.336;2024-03-23T04:29:53;8.35;85.43
75010;DHT22;63564;46.840;18.336;2024-03-23T04:36:27;8.33;85.69
75010;DHT22;63564;46.840;18.336;2024-03-23T04:39:44;8.40;85.84
75010;DHT22;63564;46.840;18.336;2024-03-23T04:43:03;8.40;85.71
75010;DHT22;63564;46.840;18.336;2024-03-23T04:46:05;8.61;85.12
75010;DHT22;63564;46.840;18.336;2024-03-23T04:49:06;8.66;84.91
75010;DHT22;63564;46.840;18.336;2024-03-23T04:52:14;8.75;84.75
75010;DHT22;63564;46.840;18.336;2024-03-23T04:55:43;8.84;84.65
75010;DHT22;63564;46.840;18.336;2024-03-23T04:58:47;8.90;84.48
75010;DHT22;63564;46.840;18.336;2024-03-23T05:01:48;9.03;84.14
75010;DHT22;63564;46.840;18.336;2024-03-23T05:08:18;9.19;83.78
75010;DHT22;63564;46.840;18.336;2024-03-23T05:11:28;9.31;83.39
75010;DHT22;63564;46.840;18.336;2024-03-23T05:14:29;9.42;83.13
75010;DHT22;63564;46.840;18.336;2024-03-23T05:17:33;9.52;82.82
75010;DHT22;63564;46.840;18.336;2024-03-23T05:20:38;9.45;83.28
75010;DHT22;63564;46.840;18.336;2024-03-23T05:23:39;9.59;83.02
75010;DHT22;63564;46.840;18.336;2024-03-23T05:26:39;9.74;82.60
75010;DHT22;63564;46.840;18.336;2024-03-23T05:29:48;9.81;82.63
75010;DHT22;63564;46.840;18.336;2024-03-23T05:33:00;9.85;82.58
75010;DHT22;63564;46.840;18.336;2024-03-23T05:36:01;9.92;82.36
75010;DHT22;63564;46.840;18.336;2024-03-23T05:39:04;10.03;82.10
75010;DHT22;63564;46.840;18.336;2024-03-23T05:42:20;10.13;81.77
75010;DHT22;63564;46.840;18.336;2024-03-23T05:45:24;10.07;82.04
75010;DHT22;63564;46.840;18.336;2024-03-23T05:48:28;10.21;81.80
75010;DHT22;63564;46.840;18.336;2024-03-23T05:51:40;10.30;81.66
75010;DHT22;63564;46.840;18.336;2024-03-23T05:54:44;10.33;81.74
75010;DHT22;63564;46.840;18.336;2024-03-23T05:57:47;10.36;81.73
75010;DHT22;63564;46.840;18.336;2024-03-23T06:00:57;10.38;81.54
75010;DHT22;63564;46.840;18.336;2024-03-23T06:04:06;10.36;81.91
75010;DHT22;63564;46.840;18.336;2024-03-23T06:07:09;10.57;81.27
75010;DHT22;63564;46.840;18.336;2024-03-23T06:10:19;10.68;80.79
75010;DHT22;63564;46.840;18.336;2024-03-23T06:13:20;10.81;80.47
75010;DHT22;63564;46.840;18.336;2024-03-23T06:16:27;10.93;80.18
75010;DHT22;63564;46.840;18.336;2024-03-23T06:19:31;11.02;80.20
75010;DHT22;63564;46.840;18.336;2024-03-23T06:22:45;11.22;79.74
75010;DHT22;63564;46.840;18.336;2024-03-23T06:25:48;11.31;79.42
75010;DHT22;63564;46.840;18.336;2024-03-23T06:29:04;11.60;78.63
75010;DHT22;63564;46.840;18.336;2024-03-23T06:32:05;11.86;77.96
75010;DHT22;63564;46.840;18.336;2024-03-23T06:35:06;12.03;77.45
75010;DHT22;63564;46.840;18.336;2024-03-23T06:38:10;12.28;76.69
75010;DHT22;63564;46.840;18.336;2024-03-23T06:41:13;12.32;76.83
75010;DHT22;63564;46.840;18.336;2024-03-23T06:44:14;12.36;76.33
75010;DHT22;63564;46.840;18.336;2024-03-23T06:47:22;12.61;75.86
75010;DHT22;63564;46.840;18.336;2024-03-23T06:50:25;12.63;75.69
75010;DHT22;63564;46.840;18.336;2024-03-23T06:53:29;12.80;75.10
75010;DHT22;63564;46.840;18.336;2024-03-23T06:56:34;12.92;74.62
75010;DHT22;63564;46.840;18.336;2024-03-23T06:59:38;12.78;75.17
75010;DHT22;63564;46.840;18.336;2024-03-23T07:02:58;12.89;74.75
75010;DHT22;63564;46.840;18.336;2024-03-23T07:06:02;12.95;74.86
75010;DHT22;63564;46.840;18.336;2024-03-23T07:09:12;13.29;74.31
75010;DHT22;63564;46.840;18.336;2024-03-23T07:12:13;13.60;73.51
75010;DHT22;63564;46.840;18.336;2024-03-23T07:15:20;14.05;71.87
75010;DHT22;63564;46.840;18.336;2024-03-23T07:18:35;14.18;71.30
75010;DHT22;63564;46.840;18.336;2024-03-23T07:21:36;14.02;71.19
75010;DHT22;63564;46.840;18.336;2024-03-23T07:24:38;13.95;70.99
75010;DHT22;63564;46.840;18.336;2024-03-23T07:27:39;13.91;71.11
75010;DHT22;63564;46.840;18.336;2024-03-23T07:30:40;14.25;70.95
75010;DHT22;63564;46.840;18.336;2024-03-23T07:33:43;14.52;70.51
75010;DHT22;63564;46.840;18.336;2024-03-23T07:36:44;14.88;69.08
75010;DHT22;63564;46.840;18.336;2024-03-23T07:39:48;15.07;68.27
75010;DHT22;63564;46.840;18.336;2024-03-23T07:42:51;15.39;67.39
75010;DHT22;63564;46.840;18.336;2024-03-23T07:45:55;15.72;67.21
75010;DHT22;63564;46.840;18.336;2024-03-23T07:49:01;15.93;65.81
75010;DHT22;63564;46.840;18.336;2024-03-23T07:52:01;16.10;65.18
75010;DHT22;63564;46.840;18.336;2024-03-23T07:55:02;16.17;64.26
75010;DHT22;63564;46.840;18.336;2024-03-23T07:58:03;16.45;64.04
75010;DHT22;63564;46.840;18.336;2024-03-23T08:01:08;16.69;63.30
75010;DHT22;63564;46.840;18.336;2024-03-23T08:04:09;16.89;61.83
75010;DHT22;63564;46.840;18.336;2024-03-23T08:07:10;16.93;61.76
75010;DHT22;63564;46.840;18.336;2024-03-23T08:10:10;16.90;61.27
75010;DHT22;63564;46.840;18.336;2024-03-23T08:13:13;16.94;60.39
75010;DHT22;63564;46.840;18.336;2024-03-23T08:16:13;17.10;60.00
75010;DHT22;63564;46.840;18.336;2024-03-23T08:19:14;17.37;60.51
75010;DHT22;63564;46.840;18.336;2024-03-23T08:22:15;17.64;59.00
75010;DHT22;63564;46.840;18.336;2024-03-23T08:25:18;17.65;58.50
75010;DHT22;63564;46.840;18.336;2024-03-23T08:28:19;17.68;60.42
75010;DHT22;63564;46.840;18.336;2024-03-23T08:31:31;17.42;60.45
75010;DHT22;63564;46.840;18.336;2024-03-23T08:34:35;17.19;60.11
75010;DHT22;63564;46.840;18.336;2024-03-23T08:37:54;17.55;59.82
75010;DHT22;63564;46.840;18.336;2024-03-23T08:41:06;17.76;58.67
75010;DHT22;63564;46.840;18.336;2024-03-23T08:44:13;17.88;57.69
75010;DHT22;63564;46.840;18.336;2024-03-23T08:47:13;17.95;58.15
75010;DHT22;63564;46.840;18.336;2024-03-23T08:50:14;18.32;56.93
75010;DHT22;63564;46.840;18.336;2024-03-23T08:53:15;18.96;55.69
75010;DHT22;63564;46.840;18.336;2024-03-23T08:56:15;18.98;53.13
75010;DHT22;63564;46.840;18.336;2024-03-23T08:59:16;18.94;53.58
75010;DHT22;63564;46.840;18.336;2024-03-23T09:02:19;19.36;53.60
75010;DHT22;63564;46.840;18.336;2024-03-23T09:05:28;19.51;53.44
75010;DHT22;63564;46.840;18.336;2024-03-23T09:08:39;19.63;52.20
75010;DHT22;63564;46.840;18.336;2024-03-23T09:11:41;19.81;52.11
75010;DHT22;63564;46.840;18.336;2024-03-23T09:14:49;19.53;51.68
75010;DHT22;63564;46.840;18.336;2024-03-23T09:17:50;19.40;53.13
75010;DHT22;63564;46.840;18.336;2024-03-23T09:20:50;19.41;53.05
75010;DHT22;63564;46.840;18.336;2024-03-23T09:23:51;19.43;52.87
75010;DHT22;63564;46.840;18.336;2024-03-23T09:26:51;19.47;52.34
75010;DHT22;63564;46.840;18.336;2024-03-23T09:29:53;19.57;52.65
75010;DHT22;63564;46.840;18.336;2024-03-23T09:33:05;19.56;53.42
75010;DHT22;63564;46.840;18.336;2024-03-23T09:36:09;19.73;53.22
75010;DHT22;63564;46.840;18.336;2024-03-23T09:39:10;19.46;52.23
75010;DHT22;63564;46.840;18.336;2024-03-23T09:42:14;19.67;52.61
75010;DHT22;63564;46.840;18.336;2024-03-23T09:45:39;19.74;51.96
75010;DHT22;63564;46.840;18.336;2024-03-23T09:48:49;19.99;50.85
75010;DHT22;63564;46.840;18.336;2024-03-23T09:51:53;20.04;50.43
75010;DHT22;63564;46.840;18.336;2024-03-23T09:54:58;19.91;50.24
75010;DHT22;63564;46.840;18.336;2024-03-23T09:58:02;20.19;49.80
75010;DHT22;63564;46.840;18.336;2024-03-23T10:01:09;20.21;48.64
75010;DHT22;63564;46.840;18.336;2024-03-23T10:04:36;20.30;48.15
75010;DHT22;63564;46.840;18.336;2024-03-23T10:07:47;20.26;48.65
75010;DHT22;63564;46.840;18.336;2024-03-23T10:10:48;20.25;49.56
75010;DHT22;63564;46.840;18.336;2024-03-23T10:13:55;20.46;48.13
75010;DHT22;63564;46.840;18.336;2024-03-23T10:17:13;20.34;48.28
75010;DHT22;63564;46.840;18.336;2024-03-23T10:20:23;20.42;46.11
75010;DHT22;63564;46.840;18.336;2024-03-23T10:23:24;20.66;46.60
75010;DHT22;63564;46.840;18.336;2024-03-23T10:26:48;20.37;46.33
75010;DHT22;63564;46.840;18.336;2024-03-23T10:30:13;20.74;47.23
75010;DHT22;63564;46.840;18.336;2024-03-23T10:33:20;20.88;46.59
75010;DHT22;63564;46.840;18.336;2024-03-23T10:36:27;21.08;45.94
75010;DHT22;63564;46.840;18.336;2024-03-23T10:39:34;21.22;45.83
75010;DHT22;63564;46.840;18.336;2024-03-23T10:42:45;21.19;45.98
75010;DHT22;63564;46.840;18.336;2024-03-23T10:45:49;20.64;43.56
75010;DHT22;63564;46.840;18.336;2024-03-23T10:48:53;20.61;44.81
75010;DHT22;63564;46.840;18.336;2024-03-23T10:52:04;20.71;44.30
75010;DHT22;63564;46.840;18.336;2024-03-23T10:55:10;20.64;43.96
75010;DHT22;63564;46.840;18.336;2024-03-23T10:58:11;20.80;44.34
75010;DHT22;63564;46.840;18.336;2024-03-23T11:01:29;21.08;44.53
75010;DHT22;63564;46.840;18.336;2024-03-23T11:04:40;22.14;43.66
75010;DHT22;63564;46.840;18.336;2024-03-23T11:07:49;22.70;42.28
75010;DHT22;63564;46.840;18.336;2024-03-23T11:10:50;22.56;42.31
75010;DHT22;63564;46.840;18.336;2024-03-23T11:13:52;22.05;42.79
75010;DHT22;63564;46.840;18.336;2024-03-23T11:17:11;21.93;43.61
75010;DHT22;63564;46.840;18.336;2024-03-23T11:20:41;22.31;42.10
75010;DHT22;63564;46.840;18.336;2024-03-23T11:23:44;22.01;42.86
75010;DHT22;63564;46.840;18.336;2024-03-23T11:27:02;22.25;41.76
75010;DHT22;63564;46.840;18.336;2024-03-23T11:30:26;22.38;42.79
75010;DHT22;63564;46.840;18.336;2024-03-23T11:33:39;22.66;41.74
75010;DHT22;63564;46.840;18.336;2024-03-23T11:36:49;23.76;39.11
75010;DHT22;63564;46.840;18.336;2024-03-23T11:40:03;23.70;38.33
75010;DHT22;63564;46.840;18.336;2024-03-23T11:43:33;23.58;38.09
75010;DHT22;63564;46.840;18.336;2024-03-23T11:46:36;23.51;38.65
75010;DHT22;63564;46.840;18.336;2024-03-23T11:49:51;23.15;40.26
75010;DHT22;63564;46.840;18.336;2024-03-23T11:53:01;23.08;40.25
75010;DHT22;63564;46.840;18.336;2024-03-23T11:56:15;22.18;38.50
75010;DHT22;63564;46.840;18.336;2024-03-23T11:59:33;21.97;39.63
75010;DHT22;63564;46.840;18.336;2024-03-23T12:02:37;22.01;39.70
75010;DHT22;63564;46.840;18.336;2024-03-23T12:05:38;21.79;39.98
75010;DHT22;63564;46.840;18.336;2024-03-23T12:08:40;21.64;41.27
75010;DHT22;63564;46.840;18.336;2024-03-23T12:11:50;21.38;41.38
75010;DHT22;63564;46.840;18.336;2024-03-23T12:15:07;21.73;41.27
75010;DHT22;63564;46.840;18.336;2024-03-23T12:18:17;21.38;40.44
75010;DHT22;63564;46.840;18.336;2024-03-23T12:21:38;21.19;41.12
75010;DHT22;63564;46.840;18.336;2024-03-23T12:24:41;21.01;41.95
75010;DHT22;63564;46.840;18.336;2024-03-23T12:27:48;21.08;42.36
75010;DHT22;63564;46.840;18.336;2024-03-23T12:31:00;21.16;42.46
75010;DHT22;63564;46.840;18.336;2024-03-23T12:34:06;21.08;43.25
75010;DHT22;63564;46.840;18.336;2024-03-23T12:37:07;21.07;43.17
75010;DHT22;63564;46.840;18.336;2024-03-23T12:40:22;21.05;43.43
75010;DHT22;63564;46.840;18.336;2024-03-23T12:43:36;21.08;43.57
75010;DHT22;63564;46.840;18.336;2024-03-23T12:46:38;21.29;42.84
75010;DHT22;63564;46.840;18.336;2024-03-23T12:49:47;21.26;42.25
75010;DHT22;63564;46.840;18.336;2024-03-23T12:52:52;21.04;42.25
75010;DHT22;63564;46.840;18.336;2024-03-23T12:55:52;21.11;42.92
75010;DHT22;63564;46.840;18.336;2024-03-23T12:59:00;20.90;43.14
75010;DHT22;63564;46.840;18.336;2024-03-23T13:02:01;20.95;42.71
75010;DHT22;63564;46.840;18.336;2024-03-23T13:05:04;21.04;43.26
75010;DHT22;63564;46.840;18.336;2024-03-23T13:08:05;21.15;43.31
75010;DHT22;63564;46.840;18.336;2024-03-23T13:11:12;21.14;42.11
75010;DHT22;63564;46.840;18.336;2024-03-23T13:14:13;20.94;42.18
75010;DHT22;63564;46.840;18.336;2024-03-23T13:17:16;21.09;42.99
75010;DHT22;63564;46.840;18.336;2024-03-23T13:20:17;20.84;42.73
75010;DHT22;63564;46.840;18.336;2024-03-23T13:23:26;20.71;43.77
75010;DHT22;63564;46.840;18.336;2024-03-23T13:26:53;20.64;43.34
75010;DHT22;63564;46.840;18.336;2024-03-23T13:29:56;20.51;41.94
75010;DHT22;63564;46.840;18.336;2024-03-23T13:33:07;20.36;41.33
75010;DHT22;63564;46.840;18.336;2024-03-23T13:36:13;20.63;41.63
75010;DHT22;63564;46.840;18.336;2024-03-23T13:39:40;20.66;42.12
75010;DHT22;63564;46.840;18.336;2024-03-23T13:42:44;20.64;42.51
75010;DHT22;63564;46.840;18.336;2024-03-23T13:45:49;20.39;42.68
75010;DHT22;63564;46.840;18.336;2024-03-23T13:48:58;20.19;43.28
75010;DHT22;63564;46.840;18.336;2024-03-23T13:52:07;20.15;44.05
75010;DHT22;63564;46.840;18.336;2024-03-23T13:55:12;20.09;43.99
75010;DHT22;63564;46.840;18.336;2024-03-23T13:58:19;20.05;44.66
75010;DHT22;63564;46.840;18.336;2024-03-23T14:01:20;20.04;43.16
75010;DHT22;63564;46.840;18.336;2024-03-23T14:04:23;19.94;42.71
75010;DHT22;63564;46.840;18.336;2024-03-23T14:07:34;19.81;43.16
75010;DHT22;63564;46.840;18.336;2024-03-23T14:10:41;19.60;43.57
75010;DHT22;63564;46.840;18.336;2024-03-23T14:13:41;19.54;44.15
75010;DHT22;63564;46.840;18.336;2024-03-23T14:16:44;19.54;44.49
75010;DHT22;63564;46.840;18.336;2024-03-23T14:19:45;19.45;44.57
75010;DHT22;63564;46.840;18.336;2024-03-23T14:22:45;19.51;44.61
75010;DHT22;63564;46.840;18.336;2024-03-23T14:25:46;19.36;44.75
75010;DHT22;63564;46.840;18.336;2024-03-23T14:28:47;19.41;45.05
75010;DHT22;63564;46.840;18.336;2024-03-23T14:32:24;19.22;45.49
75010;DHT22;63564;46.840;18.336;2024-03-23T14:35:37;19.29;45.60
75010;DHT22;63564;46.840;18.336;2024-03-23T14:39:11;19.20;46.41
75010;DHT22;63564;46.840;18.336;2024-03-23T14:42:24;19.19;46.26
75010;DHT22;63564;46.840;18.336;2024-03-23T14:45:25;19.20;45.88
75010;DHT22;63564;46.840;18.336;2024-03-23T14:55:10;19.24;46.26
75010;DHT22;63564;46.840;18.336;2024-03-23T14:58:11;19.24;46.18
75010;DHT22;63564;46.840;18.336;2024-03-23T15:01:11;19.19;46.30
75010;DHT22;63564;46.840;18.336;2024-03-23T15:04:12;19.08;46.75
75010;DHT22;63564;46.840;18.336;2024-03-23T15:07:27;19.12;47.01
75010;DHT22;63564;46.840;18.336;2024-03-23T15:10:31;19.06;46.96
75010;DHT22;63564;46.840;18.336;2024-03-23T15:13:37;19.09;47.37
75010;DHT22;63564;46.840;18.336;2024-03-23T15:16:40;19.19;47.19
75010;DHT22;63564;46.840;18.336;2024-03-23T15:19:52;19.16;47.06
75010;DHT22;63564;46.840;18.336;2024-03-23T15:22:59;19.16;47.32
75010;DHT22;63564;46.840;18.336;2024-03-23T15:26:03;19.15;47.15
75010;DHT22;63564;46.840;18.336;2024-03-23T15:29:06;19.20;47.51
75010;DHT22;63564;46.840;18.336;2024-03-23T15:32:20;19.16;47.55
75010;DHT22;63564;46.840;18.336;2024-03-23T15:35:25;19.15;47.60
75010;DHT22;63564;46.840;18.336;2024-03-23T15:38:28;19.05;48.61
75010;DHT22;63564;46.840;18.336;2024-03-23T15:41:36;19.16;47.97
75010;DHT22;63564;46.840;18.336;2024-03-23T15:44:58;19.15;48.47
75010;DHT22;63564;46.840;18.336;2024-03-23T15:48:00;19.71;47.25
75010;DHT22;63564;46.840;18.336;2024-03-23T15:51:04;19.92;47.17
75010;DHT22;63564;46.840;18.336;2024-03-23T15:54:05;19.71;47.86
75010;DHT22;63564;46.840;18.336;2024-03-23T15:57:16;19.53;48.05
75010;DHT22;63564;46.840;18.336;2024-03-23T16:00:17;19.19;48.96
75010;DHT22;63564;46.840;18.336;2024-03-23T16:03:20;19.20;48.81
75010;DHT22;63564;46.840;18.336;2024-03-23T16:06:20;19.10;49.02
75010;DHT22;63564;46.840;18.336;2024-03-23T16:09:21;19.10;49.53
75010;DHT22;63564;46.840;18.336;2024-03-23T16:12:38;18.79;50.25
75010;DHT22;63564;46.840;18.336;2024-03-23T16:15:57;18.72;50.83
75010;DHT22;63564;46.840;18.336;2024-03-23T16:19:23;18.48;51.87
75010;DHT22;63564;46.840;18.336;2024-03-23T16:22:58;18.38;51.11
75010;DHT22;63564;46.840;18.336;2024-03-23T16:26:34;18.23;50.73
75010;DHT22;63564;46.840;18.336;2024-03-23T16:29:40;18.22;49.66
75010;DHT22;63564;46.840;18.336;2024-03-23T16:32:41;18.13;50.78
75010;DHT22;63564;46.840;18.336;2024-03-23T16:35:41;18.05;49.74
75010;DHT22;63564;46.840;18.336;2024-03-23T16:38:47;18.06;49.70
75010;DHT22;63564;46.840;18.336;2024-03-23T16:41:51;17.97;50.14
75010;DHT22;63564;46.840;18.336;2024-03-23T16:44:51;17.88;50.23
75010;DHT22;63564;46.840;18.336;2024-03-23T16:47:54;17.83;50.36
75010;DHT22;63564;46.840;18.336;2024-03-23T16:51:00;17.78;50.69
75010;DHT22;63564;46.840;18.336;2024-03-23T16:54:01;17.64;51.07
75010;DHT22;63564;46.840;18.336;2024-03-23T16:57:04;17.47;51.66
75010;DHT22;63564;46.840;18.336;2024-03-23T17:00:05;17.30;51.87
75010;DHT22;63564;46.840;18.336;2024-03-23T17:03:06;17.03;53.49
75010;DHT22;63564;46.840;18.336;2024-03-23T17:06:07;16.93;54.60
75010;DHT22;63564;46.840;18.336;2024-03-23T17:09:08;16.92;53.45
75010;DHT22;63564;46.840;18.336;2024-03-23T17:12:12;16.99;53.00
75010;DHT22;63564;46.840;18.336;2024-03-23T17:15:15;16.90;53.33
75010;DHT22;63564;46.840;18.336;2024-03-23T17:18:21;16.89;53.01
75010;DHT22;63564;46.840;18.336;2024-03-23T17:21:24;17.16;52.15
75010;DHT22;63564;46.840;18.336;2024-03-23T17:24:25;16.92;55.01
75010;DHT22;63564;46.840;18.336;2024-03-23T17:27:28;15.74;61.24
75010;DHT22;63564;46.840;18.336;2024-03-23T17:30:34;15.07;63.78
75010;DHT22;63564;46.840;18.336;2024-03-23T17:33:37;14.49;64.72
75010;DHT22;63564;46.840;18.336;2024-03-23T17:36:43;14.08;65.94
75010;DHT22;63564;46.840;18.336;2024-03-23T17:39:44;13.83;66.50
75010;DHT22;63564;46.840;18.336;2024-03-23T17:42:47;13.67;67.11
75010;DHT22;63564;46.840;18.336;2024-03-23T17:45:50;13.49;67.39
75010;DHT22;63564;46.840;18.336;2024-03-23T17:48:53;13.27;68.15
75010;DHT22;63564;46.840;18.336;2024-03-23T17:52:10;13.19;68.69
75010;DHT22;63564;46.840;18.336;2024-03-23T17:58:37;12.84;70.04
75010;DHT22;63564;46.840;18.336;2024-03-23T18:01:38;12.74;70.67
75010;DHT22;63564;46.840;18.336;2024-03-23T18:04:42;12.64;71.28
75010;DHT22;63564;46.840;18.336;2024-03-23T18:07:57;12.50;71.97
75010;DHT22;63564;46.840;18.336;2024-03-23T18:11:36;12.37;72.92
75010;DHT22;63564;46.840;18.336;2024-03-23T18:14:42;12.32;73.24
75010;DHT22;63564;46.840;18.336;2024-03-23T18:17:46;12.11;73.90
75010;DHT22;63564;46.840;18.336;2024-03-23T18:20:54;11.88;74.94
75010;DHT22;63564;46.840;18.336;2024-03-23T18:24:13;11.53;76.00
75010;DHT22;63564;46.840;18.336;2024-03-23T18:27:27;11.24;74.96
75010;DHT22;63564;46.840;18.336;2024-03-23T18:30:34;10.99;73.03
75010;DHT22;63564;46.840;18.336;2024-03-23T18:33:51;10.88;71.82
75010;DHT22;63564;46.840;18.336;2024-03-23T18:37:02;10.79;71.47
75010;DHT22;63564;46.840;18.336;2024-03-23T18:40:17;10.52;72.06
75010;DHT22;63564;46.840;18.336;2024-03-23T18:43:21;10.09;73.76
75010;DHT22;63564;46.840;18.336;2024-03-23T18:47:05;9.65;77.49
75010;DHT22;63564;46.840;18.336;2024-03-23T18:50:32;9.47;77.50
75010;DHT22;63564;46.840;18.336;2024-03-23T18:53:43;9.32;78.81
75010;DHT22;63564;46.840;18.336;2024-03-23T18:57:03;9.24;80.07
75010;DHT22;63564;46.840;18.336;2024-03-23T19:00:04;9.20;79.51
75010;DHT22;63564;46.840;18.336;2024-03-23T19:03:09;9.19;80.58
75010;DHT22;63564;46.840;18.336;2024-03-23T19:06:39;9.14;82.11
75010;DHT22;63564;46.840;18.336;2024-03-23T19:10:30;8.73;86.34
75010;DHT22;63564;46.840;18.336;2024-03-23T19:13:47;8.28;87.88
75010;DHT22;63564;46.840;18.336;2024-03-23T19:16:58;8.04;88.65
75010;DHT22;63564;46.840;18.336;2024-03-23T19:20:11;7.90;90.63
75010;DHT22;63564;46.840;18.336;2024-03-23T19:23:17;7.77;90.92
75010;DHT22;63564;46.840;18.336;2024-03-23T19:26:17;7.69;90.06
75010;DHT22;63564;46.840;18.336;2024-03-23T19:29:18;7.62;90.76
75010;DHT22;63564;46.840;18.336;2024-03-23T19:32:18;7.62;91.83
75010;DHT22;63564;46.840;18.336;2024-03-23T19:35:34;7.62;90.47
75010;DHT22;63564;46.840;18.336;2024-03-23T19:38:37;7.58;90.90
75010;DHT22;63564;46.840;18.336;2024-03-23T19:45:24;7.55;91.02
75010;DHT22;63564;46.840;18.336;2024-03-23T19:48:44;7.52;91.62
75010;DHT22;63564;46.840;18.336;2024-03-23T19:51:48;7.52;91.71
75010;DHT22;63564;46.840;18.336;2024-03-23T19:55:10;7.42;91.26
75010;DHT22;63564;46.840;18.336;2024-03-23T19:58:44;7.32;92.60
75010;DHT22;63564;46.840;18.336;2024-03-23T20:01:54;7.30;92.90
75010;DHT22;63564;46.840;18.336;2024-03-23T20:04:57;7.31;93.37
75010;DHT22;63564;46.840;18.336;2024-03-23T20:08:02;7.24;93.26
75010;DHT22;63564;46.840;18.336;2024-03-23T20:11:16;7.24;93.43
75010;DHT22;63564;46.840;18.336;2024-03-23T20:14:19;7.20;93.78
75010;DHT22;63564;46.840;18.336;2024-03-23T20:17:23;7.21;93.43
75010;DHT22;63564;46.840;18.336;2024-03-23T20:20:28;7.25;93.19
75010;DHT22;63564;46.840;18.336;2024-03-23T20:23:50;7.25;91.60
75010;DHT22;63564;46.840;18.336;2024-03-23T20:26:52;7.25;91.51
75010;DHT22;63564;46.840;18.336;2024-03-23T20:29:52;7.27;92.64
75010;DHT22;63564;46.840;18.336;2024-03-23T20:32:53;7.25;91.75
75010;DHT22;63564;46.840;18.336;2024-03-23T20:35:53;7.31;91.12
75010;DHT22;63564;46.840;18.336;2024-03-23T20:38:59;7.34;90.95
75010;DHT22;63564;46.840;18.336;2024-03-23T20:42:08;7.35;91.83
75010;DHT22;63564;46.840;18.336;2024-03-23T20:45:16;7.35;91.62
75010;DHT22;63564;46.840;18.336;2024-03-23T20:48:18;7.35;90.56
75010;DHT22;63564;46.840;18.336;2024-03-23T20:51:19;7.35;89.35
75010;DHT22;63564;46.840;18.336;2024-03-23T20:54:20;7.36;89.71
75010;DHT22;63564;46.840;18.336;2024-03-23T20:57:24;7.36;89.85